Time;durP1;ratioP1;P1;durP2;ratioP2;P2;SDS_P1;SDS_P2;PMS_P1;PMS_P2;Temp;Humidity;BMP_temperature;BMP_pressure;BME280_temperature;BME280_humidity;BME280_pressure;Samples;Min_cycle;Max_cycle;Signal;HPM_P1;HPM_P2
2021/09/21 00:01:06;;;;;;;;;;;;;;;;;;5093273;28;19931;-72
2021/09/21 00:03:32;;;;;;;;;;;;;;;;;;5092630;28;19975;-73
2021/09/21 00:05:59;;;;;;;;;;;;;;;;;;5093158;28;19924;-72
2021/09/21 00:08:27;;;;;;;;;;;;;;;;;;5093378;28;19924;-73
2021/09/21 00:10:53;;;;;;;;;;;;;;;;;;5092825;28;20621;-72
2021/09/21 00:13:19;;;;;;;;;;;;;;;;;;5093075;28;19924;-72
2021/09/21 00:15:46;;;;;;;;;;;;;;;;;;5092739;28;19924;-72
2021/09/21 00:18:12;;;;;;;;;;;;;;;;;;5092679;28;19928;-72
2021/09/21 00:20:38;;;;;;;;;;;;;;;;;;5092713;28;19924;-73
2021/09/21 00:23:04;;;;;;;;;;;;;;;;;;5092975;28;19946;-70
2021/09/21 00:25:31;;;;;;;;;;;;;;;;;;5092284;28;19924;-72
2021/09/21 00:27:57;;;;;;;;;;;;;;;;;;5092863;28;19931;-71
2021/09/21 00:30:23;;;;;;;;;;;;;;;;;;5092487;28;20298;-72
2021/09/21 00:33:01;;;;;;;;;;;;;;;;;;5092305;28;19924;-71
2021/09/21 00:35:27;;;;;;;;;;;;;;;;;;5092498;28;19924;-72
2021/09/21 00:37:53;;;;;;;;;;;;;;;;;;5092289;28;20378;-71
2021/09/21 00:40:19;;;;;;;;;;;;;;;;;;5092473;28;19924;-72
2021/09/21 00:42:46;;;;;;;;;;;;;;;;;;5092495;28;19924;-72
2021/09/21 00:45:12;;;;;;;;;;;;;;;;;;5092334;28;20409;-72
2021/09/21 00:47:38;;;;;;;;;;;;;;;;;;5092358;28;19925;-72
2021/09/21 00:50:05;;;;;;;;;;;;;;;;;;5092615;28;19924;-72
2021/09/21 00:52:31;;;;;;;;;;;;;;;;;;5094118;28;19924;-71
2021/09/21 00:54:57;;;;;;;;;;;;;;;;;;5096728;28;19924;-71
2021/09/21 00:57:24;;;;;;;;;;;;;;;;;;5096351;28;20289;-72
2021/09/21 00:59:50;;;;;;;;;;;;;;;;;;5096114;28;19931;-72
2021/09/21 01:02:16;;;;;;;;;;;;;;;;;;5096538;28;19924;-72
2021/09/21 01:04:42;;;;;;;;;;;;;;;;;;5095956;28;20396;-72
2021/09/21 01:07:09;;;;;;;;;;;;;;;;;;5096182;28;19931;-73
2021/09/21 01:09:35;;;;;;;;;;;;;;;;;;5096186;28;19931;-72
2021/09/21 01:12:01;;;;;;;;;;;;;;;;;;5095992;28;19928;-72
2021/09/21 01:14:28;;;;;;;;;;;;;;;;;;5096167;28;19924;-72
2021/09/21 01:16:54;;;;;;;;;;;;;;;;;;5096042;28;20290;-72
2021/09/21 01:19:20;;;;;;;;;;;;;;;;;;5095994;28;19931;-72
2021/09/21 01:21:47;;;;;;;;;;;;;;;;;;5096023;28;19924;-72
2021/09/21 01:24:13;;;;;;;;;;;;;;;;;;5095550;28;19928;-72
2021/09/21 01:26:39;;;;;;;;;;;;;;;;;;5095849;28;19924;-72
2021/09/21 01:29:06;;;;;;;;;;;;;;;;;;5096082;28;19924;-72
2021/09/21 01:31:32;;;;;;;;;;;;;;;;;;5095513;28;19924;-73
2021/09/21 01:33:58;;;;;;;;;;;;;;;;;;5095962;28;20018;-72
2021/09/21 01:36:24;;;;;;;;;;;;;;;;;;5095612;28;20294;-72
2021/09/21 01:38:51;;;;;;;;;;;;;;;;;;5095385;28;19930;-72
2021/09/21 01:41:17;;;;;;;;;;;;;;;;;;5095775;28;19924;-72
2021/09/21 01:43:44;;;;;;;;;;;;;;;;;;5095582;28;19951;-72
2021/09/21 01:46:10;;;;;;;;;;;;;;;;;;5095512;28;19971;-72
2021/09/21 01:48:37;;;;;;;;;;;;;;;;;;5095257;28;19931;-72
2021/09/21 01:51:05;;;;;;;;;;;;;;;;;;5095679;28;19928;-72
2021/09/21 01:53:40;;;;;;;;;;;;;;;;;;5095424;28;19924;-72
2021/09/21 01:58:51;;;;;;;;;;;;;;;;;;5095207;28;19919;-72
2021/09/21 02:01:17;;;;;;;;;;;;;;;;;;5095413;28;19924;-72
2021/09/21 02:03:43;;;;;;;;;;;;;;;;;;5094234;28;20451;-72
2021/09/21 02:06:10;;;;;;;;;;;;;;;;;;5095035;28;19931;-72
2021/09/21 02:08:36;;;;;;;;;;;;;;;;;;5094775;28;19928;-72
2021/09/21 02:11:02;;;;;;;;;;;;;;;;;;5095363;28;19924;-72
2021/09/21 02:13:29;;;;;;;;;;;;;;;;;;5094768;28;19924;-72
2021/09/21 02:15:55;;;;;;;;;;;;;;;;;;5095084;28;19924;-72
2021/09/21 02:18:21;;;;;;;;;;;;;;;;;;5095179;28;19924;-72
2021/09/21 02:20:48;;;;;;;;;;;;;;;;;;5094622;28;19924;-72
2021/09/21 02:23:14;;;;;;;;;;;;;;;;;;5094888;28;19935;-72
2021/09/21 02:25:40;;;;;;;;;;;;;;;;;;5094545;28;20290;-72
2021/09/21 02:28:06;;;;;;;;;;;;;;;;;;5094535;28;19924;-73
2021/09/21 02:30:35;;;;;;;;;;;;;;;;;;5094661;28;19931;-72
2021/09/21 02:33:01;;;;;;;;;;;;;;;;;;5094624;28;20464;-72
2021/09/21 02:35:27;;;;;;;;;;;;;;;;;;5094307;28;19924;-73
2021/09/21 02:37:54;;;;;;;;;;;;;;;;;;5094825;28;19928;-72
2021/09/21 02:40:20;;;;;;;;;;;;;;;;;;5094357;28;20371;-72
2021/09/21 02:42:46;;;;;;;;;;;;;;;;;;5094183;28;19924;-72
2021/09/21 02:45:13;;;;;;;;;;;;;;;;;;5094557;28;19924;-72
2021/09/21 02:47:39;;;;;;;;;;;;;;;;;;5093918;28;20382;-72
2021/09/21 02:50:05;;;;;;;;;;;;;;;;;;5094553;28;19924;-72
2021/09/21 02:52:32;;;;;;;;;;;;;;;;;;5094167;28;19947;-72
2021/09/21 02:54:58;;;;;;;;;;;;;;;;;;5094046;28;20378;-72
2021/09/21 02:57:24;;;;;;;;;;;;;;;;;;5094120;28;19928;-72
2021/09/21 02:59:50;;;;;;;;;;;;;;;;;;5093849;28;20271;-72
2021/09/21 03:02:17;;;;;;;;;;;;;;;;;;5094019;28;19924;-72
2021/09/21 03:04:51;;;;;;;;;;;;;;;;;;5093628;28;19924;-72
2021/09/21 03:07:25;;;;;;;;;;;;;;;;;;5093769;28;20035;-73
2021/09/21 03:09:55;;;;;;;;;;;;;;;;;;5094224;28;20321;-73
2021/09/21 03:12:29;;;;;;;;;;;;;;;;;;5093745;28;19931;-73
2021/09/21 03:17:39;;;;;;;;;;;;;;;;;;5093440;28;19986;-73
2021/09/21 03:20:06;;;;;;;;;;;;;;;;;;5093964;28;19924;-73
2021/09/21 03:22:32;;;;;;;;;;;;;;;;;;5093360;28;19924;-73
2021/09/21 03:24:58;;;;;;;;;;;;;;;;;;5093685;28;19931;-73
2021/09/21 03:27:24;;;;;;;;;;;;;;;;;;5093664;28;19927;-71
2021/09/21 03:29:51;;;;;;;;;;;;;;;;;;5093158;28;19924;-70
2021/09/21 03:32:17;;;;;;;;;;;;;;;;;;5093710;28;19931;-72
2021/09/21 03:34:43;;;;;;;;;;;;;;;;;;5093127;28;19936;-71
2021/09/21 03:37:10;;;;;;;;;;;;;;;;;;5093610;28;19924;-73
2021/09/21 03:39:36;;;;;;;;;;;;;;;;;;5093267;28;19924;-73
2021/09/21 03:42:02;;;;;;;;;;;;;;;;;;5093305;28;19931;-73
2021/09/21 03:44:29;;;;;;;;;;;;;;;;;;5093123;28;19924;-72
2021/09/21 03:46:55;;;;;;;;;;;;;;;;;;5093412;28;19927;-73
2021/09/21 03:49:21;;;;;;;;;;;;;;;;;;5093001;28;19924;-72
2021/09/21 03:51:47;;;;;;;;;;;;;;;;;;5093138;28;19934;-72
2021/09/21 03:54:14;;;;;;;;;;;;;;;;;;5093368;28;19924;-72
2021/09/21 03:56:40;;;;;;;;;;;;;;;;;;5092806;28;19931;-72
2021/09/21 03:59:07;;;;;;;;;;;;;;;;;;5092902;28;20015;-73
2021/09/21 04:01:33;;;;;;;;;;;;;;;;;;5092975;28;19924;-73
2021/09/21 04:03:59;;;;;;;;;;;;;;;;;;5092880;28;20370;-74
2021/09/21 04:06:25;;;;;;;;;;;;;;;;;;5092864;28;19928;-76
2021/09/21 04:08:52;;;;;;;;;;;;;;;;;;5093002;28;19931;-71
2021/09/21 04:11:18;;;;;;;;;;;;;;;;;;5092776;28;19924;-71
2021/09/21 04:13:45;;;;;;;;;;;;;;;;;;5092735;28;19928;-72
2021/09/21 04:16:11;;;;;;;;;;;;;;;;;;5092988;28;19931;-72
2021/09/21 04:18:37;;;;;;;;;;;;;;;;;;5092457;28;20402;-72
2021/09/21 04:21:04;;;;;;;;;;;;;;;;;;5092652;28;19924;-72
2021/09/21 04:23:30;;;;;;;;;;;;;;;;;;5092448;28;19924;-72
2021/09/21 04:25:56;;;;;;;;;;;;;;;;;;5092561;28;20374;-71
2021/09/21 04:28:23;;;;;;;;;;;;;;;;;;5092113;28;19924;-73
2021/09/21 04:30:49;;;;;;;;;;;;;;;;;;5092640;28;19930;-72
2021/09/21 04:33:15;;;;;;;;;;;;;;;;;;5092441;28;20489;-72
2021/09/21 04:35:42;;;;;;;;;;;;;;;;;;5092211;28;19935;-72
2021/09/21 04:38:08;;;;;;;;;;;;;;;;;;5092719;28;19930;-73
2021/09/21 04:40:34;;;;;;;;;;;;;;;;;;5092200;28;20297;-73
2021/09/21 04:43:00;;;;;;;;;;;;;;;;;;5092371;28;19924;-73
2021/09/21 04:45:27;;;;;;;;;;;;;;;;;;5091308;28;19931;-73
2021/09/21 04:47:53;;;;;;;;;;;;;;;;;;5092351;28;19924;-74
2021/09/21 04:50:19;;;;;;;;;;;;;;;;;;5092250;28;20382;-74
2021/09/21 04:52:46;;;;;;;;;;;;;;;;;;5092012;28;19932;-73
2021/09/21 04:55:12;;;;;;;;;;;;;;;;;;5092548;28;19924;-74
2021/09/21 04:57:38;;;;;;;;;;;;;;;;;;5091919;28;19924;-72
2021/09/21 05:00:05;;;;;;;;;;;;;;;;;;5092330;28;19925;-72
2021/09/21 05:02:31;;;;;;;;;;;;;;;;;;5092190;28;19924;-72
2021/09/21 05:04:57;;;;;;;;;;;;;;;;;;5092189;28;19924;-73
2021/09/21 05:07:23;;;;;;;;;;;;;;;;;;5092408;28;19924;-72
2021/09/21 05:09:50;;;;;;;;;;;;;;;;;;5092204;28;19924;-72
2021/09/21 05:12:16;;;;;;;;;;;;;;;;;;5092135;28;19928;-72
2021/09/21 05:14:42;;;;;;;;;;;;;;;;;;5092100;28;19932;-71
2021/09/21 05:17:09;;;;;;;;;;;;;;;;;;5092472;28;19935;-71
2021/09/21 05:19:35;;;;;;;;;;;;;;;;;;5090791;28;20349;-76
2021/09/21 05:22:01;;;;;;;;;;;;;;;;;;5091106;28;19930;-77
2021/09/21 05:24:28;;;;;;;;;;;;;;;;;;5091714;28;19932;-77
2021/09/21 05:26:54;;;;;;;;;;;;;;;;;;5091842;28;20271;-77
2021/09/21 05:29:20;;;;;;;;;;;;;;;;;;5091146;28;19934;-77
2021/09/21 05:31:46;;;;;;;;;;;;;;;;;;5091400;28;20658;-72
2021/09/21 05:34:13;;;;;;;;;;;;;;;;;;5091916;28;19924;-72
2021/09/21 05:36:39;;;;;;;;;;;;;;;;;;5092012;28;19924;-72
2021/09/21 05:39:05;;;;;;;;;;;;;;;;;;5093068;28;20306;-72
2021/09/21 05:41:32;;;;;;;;;;;;;;;;;;5095258;28;19935;-72
2021/09/21 05:43:58;;;;;;;;;;;;;;;;;;5095756;28;19947;-72
2021/09/21 05:46:24;;;;;;;;;;;;;;;;;;5095420;28;19924;-72
2021/09/21 05:48:52;;;;;;;;;;;;;;;;;;5095476;28;19931;-73
2021/09/21 05:51:18;;;;;;;;;;;;;;;;;;5095679;28;19981;-72
2021/09/21 05:53:45;;;;;;;;;;;;;;;;;;5095152;28;20386;-72
2021/09/21 05:56:11;;;;;;;;;;;;;;;;;;5095127;28;19924;-72
2021/09/21 05:58:37;;;;;;;;;;;;;;;;;;5095336;28;19936;-72
2021/09/21 06:01:03;;;;;;;;;;;;;;;;;;5095204;28;20386;-72
2021/09/21 06:03:30;;;;;;;;;;;;;;;;;;5094850;28;19924;-72
2021/09/21 06:05:56;;;;;;;;;;;;;;;;;;5095328;28;19947;-72
2021/09/21 06:08:22;;;;;;;;;;;;;;;;;;5094946;28;20382;-73
2021/09/21 06:10:49;;;;;;;;;;;;;;;;;;5094807;28;19930;-72
2021/09/21 06:13:15;;;;;;;;;;;;;;;;;;5095322;28;19928;-73
2021/09/21 06:15:41;;;;;;;;;;;;;;;;;;5094660;28;19928;-72
2021/09/21 06:18:08;;;;;;;;;;;;;;;;;;5094901;28;19924;-73
2021/09/21 06:20:36;;;;;;;;;;;;;;;;;;5094895;28;19924;-73
2021/09/21 06:23:02;;;;;;;;;;;;;;;;;;5095327;28;19925;-73
2021/09/21 06:25:28;;;;;;;;;;;;;;;;;;5094380;28;19924;-73
2021/09/21 06:27:55;;;;;;;;;;;;;;;;;;5094815;28;19924;-73
2021/09/21 06:30:21;;;;;;;;;;;;;;;;;;5094966;28;19931;-73
2021/09/21 06:32:47;;;;;;;;;;;;;;;;;;5094393;28;19935;-71
2021/09/21 06:35:14;;;;;;;;;;;;;;;;;;5094562;28;19930;-72
2021/09/21 06:37:40;;;;;;;;;;;;;;;;;;5094500;28;19947;-72
2021/09/21 06:40:06;;;;;;;;;;;;;;;;;;5094429;28;20109;-72
2021/09/21 06:42:33;;;;;;;;;;;;;;;;;;5094398;28;19924;-72
2021/09/21 06:45:01;;;;;;;;;;;;;;;;;;5094623;28;19978;-72
2021/09/21 06:47:27;;;;;;;;;;;;;;;;;;5094396;28;19932;-72
2021/09/21 06:49:53;;;;;;;;;;;;;;;;;;5094041;28;20386;-72
2021/09/21 06:52:20;;;;;;;;;;;;;;;;;;5094370;28;19931;-72
2021/09/21 06:54:46;;;;;;;;;;;;;;;;;;5093929;28;20283;-72
2021/09/21 06:57:12;;;;;;;;;;;;;;;;;;5094149;28;19930;-72
2021/09/21 06:59:38;;;;;;;;;;;;;;;;;;5093815;28;19930;-72
2021/09/21 07:02:05;;;;;;;;;;;;;;;;;;5094238;28;19924;-72
2021/09/21 07:04:31;;;;;;;;;;;;;;;;;;5093728;28;19925;-72
2021/09/21 07:06:57;;;;;;;;;;;;;;;;;;5093905;28;19934;-72
2021/09/21 07:09:24;;;;;;;;;;;;;;;;;;5094108;28;19931;-72
2021/09/21 07:11:50;;;;;;;;;;;;;;;;;;5093407;28;20385;-72
2021/09/21 07:14:18;;;;;;;;;;;;;;;;;;5093985;28;19931;-72
2021/09/21 07:16:44;;;;;;;;;;;;;;;;;;5093369;28;19931;-72
2021/09/21 07:19:10;;;;;;;;;;;;;;;;;;5093767;28;19931;-72
2021/09/21 07:21:37;;;;;;;;;;;;;;;;;;5093476;28;19946;-72
2021/09/21 07:24:03;;;;;;;;;;;;;;;;;;5093312;28;20382;-72
2021/09/21 07:26:29;;;;;;;;;;;;;;;;;;5093538;28;19931;-72
2021/09/21 07:28:56;;;;;;;;;;;;;;;;;;5093438;28;19924;-72
2021/09/21 07:31:22;;;;;;;;;;;;;;;;;;5093759;28;19924;-72
2021/09/21 07:33:48;;;;;;;;;;;;;;;;;;5093302;28;20401;-72
2021/09/21 07:36:14;;;;;;;;;;;;;;;;;;5093753;28;19924;-72
2021/09/21 07:38:41;;;;;;;;;;;;;;;;;;5093060;28;20392;-72
2021/09/21 07:41:07;;;;;;;;;;;;;;;;;;5093587;28;19924;-72
2021/09/21 07:43:33;;;;;;;;;;;;;;;;;;5093428;28;20313;-72
2021/09/21 07:46:00;;;;;;;;;;;;;;;;;;5093161;28;19931;-72
2021/09/21 07:48:26;;;;;;;;;;;;;;;;;;5093398;28;19930;-72
2021/09/21 07:50:52;;;;;;;;;;;;;;;;;;5093451;28;19924;-72
2021/09/21 07:53:19;;;;;;;;;;;;;;;;;;5093088;28;20297;-71
2021/09/21 07:55:45;;;;;;;;;;;;;;;;;;5092734;28;19924;-72
2021/09/21 07:58:12;;;;;;;;;;;;;;;;;;5092965;28;20385;-72
2021/09/21 08:00:38;;;;;;;;;;;;;;;;;;5092792;28;19928;-72
2021/09/21 08:03:04;;;;;;;;;;;;;;;;;;5092438;28;20389;-72
2021/09/21 08:05:32;;;;;;;;;;;;;;;;;;5092955;28;19924;-72
2021/09/21 08:07:59;;;;;;;;;;;;;;;;;;5092969;28;19944;-71
2021/09/21 08:10:25;;;;;;;;;;;;;;;;;;5093094;28;19928;-72
2021/09/21 08:12:51;;;;;;;;;;;;;;;;;;5092582;28;20109;-72
2021/09/21 08:15:18;;;;;;;;;;;;;;;;;;5092929;28;19932;-72
2021/09/21 08:17:44;;;;;;;;;;;;;;;;;;5092782;28;19973;-72
2021/09/21 08:20:10;;;;;;;;;;;;;;;;;;5093062;28;19947;-71
2021/09/21 08:22:37;;;;;;;;;;;;;;;;;;5092467;28;19931;-72
2021/09/21 08:25:03;;;;;;;;;;;;;;;;;;5092550;28;20035;-72
2021/09/21 08:27:29;;;;;;;;;;;;;;;;;;5092664;28;19935;-72
2021/09/21 08:29:56;;;;;;;;;;;;;;;;;;5092760;28;19924;-72
2021/09/21 08:32:22;;;;;;;;;;;;;;;;;;5092575;28;20401;-73
2021/09/21 08:34:48;;;;;;;;;;;;;;;;;;5092644;28;19924;-72
2021/09/21 08:37:15;;;;;;;;;;;;;;;;;;5092740;28;19924;-73
2021/09/21 08:39:41;;;;;;;;;;;;;;;;;;5092276;28;19924;-73
2021/09/21 08:42:07;;;;;;;;;;;;;;;;;;5092736;28;19924;-71
2021/09/21 08:44:36;;;;;;;;;;;;;;;;;;5092136;28;20405;-71
2021/09/21 08:47:03;;;;;;;;;;;;;;;;;;5092774;28;20023;-73
2021/09/21 08:49:29;;;;;;;;;;;;;;;;;;5092086;28;20420;-71
2021/09/21 08:51:55;;;;;;;;;;;;;;;;;;5092312;28;19924;-71
2021/09/21 08:54:21;;;;;;;;;;;;;;;;;;5092593;28;19930;-71
2021/09/21 08:56:48;;;;;;;;;;;;;;;;;;5092090;28;20263;-72
2021/09/21 08:59:15;;;;;;;;;;;;;;;;;;5092321;28;19931;-72
2021/09/21 09:01:41;;;;;;;;;;;;;;;;;;5092399;28;20054;-72
2021/09/21 09:04:08;;;;;;;;;;;;;;;;;;5092175;28;19924;-72
2021/09/21 09:06:34;;;;;;;;;;;;;;;;;;5092241;28;19924;-72
2021/09/21 09:09:03;;;;;;;;;;;;;;;;;;5092160;28;19932;-72
2021/09/21 09:11:30;;;;;;;;;;;;;;;;;;5091908;28;19924;-72
2021/09/21 09:13:56;;;;;;;;;;;;;;;;;;5093427;28;19930;-72
2021/09/21 09:16:22;;;;;;;;;;;;;;;;;;5096321;28;20001;-72
2021/09/21 09:18:49;;;;;;;;;;;;;;;;;;5095877;28;19931;-72
2021/09/21 09:21:15;;;;;;;;;;;;;;;;;;5096229;28;19958;-72
2021/09/21 09:23:42;;;;;;;;;;;;;;;;;;5095586;28;19935;-72
2021/09/21 09:26:08;;;;;;;;;;;;;;;;;;5095923;28;19931;-72
2021/09/21 09:28:34;;;;;;;;;;;;;;;;;;5095791;28;19931;-72
2021/09/21 09:31:01;;;;;;;;;;;;;;;;;;5095749;28;19931;-72
2021/09/21 09:33:27;;;;;;;;;;;;;;;;;;5096134;28;19930;-72
2021/09/21 09:35:54;;;;;;;;;;;;;;;;;;5096101;28;19931;-72
2021/09/21 09:38:20;;;;;;;;;;;;;;;;;;5095971;28;19946;-72
2021/09/21 09:40:46;;;;;;;;;;;;;;;;;;5095341;28;20382;-72
2021/09/21 09:43:13;;;;;;;;;;;;;;;;;;5095426;28;19930;-72
2021/09/21 09:45:39;;;;;;;;;;;;;;;;;;5095602;28;19936;-72
2021/09/21 09:48:05;;;;;;;;;;;;;;;;;;5095530;28;20286;-72
2021/09/21 09:50:32;;;;;;;;;;;;;;;;;;5095096;28;19939;-73
2021/09/21 09:52:58;;;;;;;;;;;;;;;;;;5095716;28;19931;-72
2021/09/21 09:55:24;;;;;;;;;;;;;;;;;;5095290;28;20430;-72
2021/09/21 09:57:50;;;;;;;;;;;;;;;;;;5095309;28;19931;-72
2021/09/21 10:00:17;;;;;;;;;;;;;;;;;;5095566;28;19931;-72
2021/09/21 10:02:43;;;;;;;;;;;;;;;;;;5095367;28;19931;-72
2021/09/21 10:05:09;;;;;;;;;;;;;;;;;;5095155;28;19928;-72
2021/09/21 10:07:36;;;;;;;;;;;;;;;;;;5095204;28;19931;-72
2021/09/21 10:10:02;;;;;;;;;;;;;;;;;;5094956;28;20405;-73
2021/09/21 10:12:28;;;;;;;;;;;;;;;;;;5094837;28;19924;-72
2021/09/21 10:14:55;;;;;;;;;;;;;;;;;;5095218;28;19924;-72
2021/09/21 10:17:21;;;;;;;;;;;;;;;;;;5094896;28;20275;-72
2021/09/21 10:19:47;;;;;;;;;;;;;;;;;;5094519;28;19928;-72
2021/09/21 10:22:13;;;;;;;;;;;;;;;;;;5095084;28;19924;-72
2021/09/21 10:24:41;;;;;;;;;;;;;;;;;;5093735;28;20379;-72
2021/09/21 10:27:07;;;;;;;;;;;;;;;;;;5094827;28;20019;-73
2021/09/21 10:29:33;;;;;;;;;;;;;;;;;;5094667;28;19928;-72
2021/09/21 10:31:59;;;;;;;;;;;;;;;;;;5094459;28;20284;-73
2021/09/21 10:34:26;;;;;;;;;;;;;;;;;;5094610;28;19925;-74
2021/09/21 10:36:52;;;;;;;;;;;;;;;;;;5095019;28;19931;-73
2021/09/21 10:39:18;;;;;;;;;;;;;;;;;;5094466;28;20394;-71
2021/09/21 10:41:45;;;;;;;;;;;;;;;;;;5093956;28;19924;-71
2021/09/21 10:44:11;;;;;;;;;;;;;;;;;;5094663;28;19938;-71
2021/09/21 10:46:37;;;;;;;;;;;;;;;;;;5094156;28;20378;-72
2021/09/21 10:49:04;;;;;;;;;;;;;;;;;;5094479;28;19969;-72
2021/09/21 10:51:30;;;;;;;;;;;;;;;;;;5094305;28;19928;-72
2021/09/21 10:53:56;;;;;;;;;;;;;;;;;;5094728;28;19924;-73
2021/09/21 10:56:23;;;;;;;;;;;;;;;;;;5094174;28;19924;-72
2021/09/21 10:58:49;;;;;;;;;;;;;;;;;;5094060;28;19924;-72
2021/09/21 11:01:15;;;;;;;;;;;;;;;;;;5093910;28;20404;-72
2021/09/21 11:03:42;;;;;;;;;;;;;;;;;;5093970;28;19928;-73
2021/09/21 11:06:08;;;;;;;;;;;;;;;;;;5094291;28;19930;-72
2021/09/21 11:08:34;;;;;;;;;;;;;;;;;;5093909;28;20350;-72
2021/09/21 11:11:01;;;;;;;;;;;;;;;;;;5094114;28;19935;-72
2021/09/21 11:13:27;;;;;;;;;;;;;;;;;;5094089;28;19931;-73
2021/09/21 11:15:53;;;;;;;;;;;;;;;;;;5094115;28;19931;-73
2021/09/21 11:18:19;;;;;;;;;;;;;;;;;;5093721;28;19924;-72
2021/09/21 11:20:46;;;;;;;;;;;;;;;;;;5093489;28;19924;-72
2021/09/21 11:23:12;;;;;;;;;;;;;;;;;;5093770;28;19973;-72
2021/09/21 11:25:38;;;;;;;;;;;;;;;;;;5093680;28;20037;-73
2021/09/21 11:28:06;;;;;;;;;;;;;;;;;;5093543;28;19932;-73
2021/09/21 11:30:32;;;;;;;;;;;;;;;;;;5093242;28;19924;-72
2021/09/21 11:32:58;;;;;;;;;;;;;;;;;;5093784;28;19924;-73
2021/09/21 11:35:27;;;;;;;;;;;;;;;;;;5093002;28;20286;-73
2021/09/21 11:37:53;;;;;;;;;;;;;;;;;;5092449;28;19931;-73
2021/09/21 11:40:19;;;;;;;;;;;;;;;;;;5093339;28;19924;-72
2021/09/21 11:42:45;;;;;;;;;;;;;;;;;;5093020;28;20390;-73
2021/09/21 11:45:12;;;;;;;;;;;;;;;;;;5093217;28;19930;-73
2021/09/21 11:47:38;;;;;;;;;;;;;;;;;;5092724;28;19963;-72
2021/09/21 11:50:04;;;;;;;;;;;;;;;;;;5093379;28;19930;-73
2021/09/21 11:52:31;;;;;;;;;;;;;;;;;;5093094;28;19950;-72
2021/09/21 11:54:57;;;;;;;;;;;;;;;;;;5092962;28;19924;-72
2021/09/21 11:57:23;;;;;;;;;;;;;;;;;;5093282;28;19924;-73
2021/09/21 11:59:50;;;;;;;;;;;;;;;;;;5092734;28;20333;-72
2021/09/21 12:02:16;;;;;;;;;;;;;;;;;;5092926;28;19924;-72
2021/09/21 12:04:42;;;;;;;;;;;;;;;;;;5092844;28;19928;-72
2021/09/21 12:07:09;;;;;;;;;;;;;;;;;;5093078;28;19924;-72
2021/09/21 12:09:35;;;;;;;;;;;;;;;;;;5092827;28;19928;-72
2021/09/21 12:12:01;;;;;;;;;;;;;;;;;;5092728;28;19936;-72
2021/09/21 12:14:28;;;;;;;;;;;;;;;;;;5092802;28;19924;-72
2021/09/21 12:16:54;;;;;;;;;;;;;;;;;;5093002;28;19947;-72
2021/09/21 12:19:22;;;;;;;;;;;;;;;;;;5092596;28;19931;-72
2021/09/21 12:21:49;;;;;;;;;;;;;;;;;;5092362;28;19924;-72
2021/09/21 12:24:15;;;;;;;;;;;;;;;;;;5092617;28;19924;-72
2021/09/21 12:26:41;;;;;;;;;;;;;;;;;;5092284;28;19928;-72
2021/09/21 12:29:08;;;;;;;;;;;;;;;;;;5092827;28;19939;-72
2021/09/21 12:31:35;;;;;;;;;;;;;;;;;;5092610;28;19924;-72
2021/09/21 12:34:01;;;;;;;;;;;;;;;;;;5092831;28;19928;-72
2021/09/21 12:36:27;;;;;;;;;;;;;;;;;;5092412;28;19924;-72
2021/09/21 12:38:53;;;;;;;;;;;;;;;;;;5092440;28;19932;-72
2021/09/21 12:41:20;;;;;;;;;;;;;;;;;;5092484;28;19930;-72
2021/09/21 12:43:46;;;;;;;;;;;;;;;;;;5092036;28;19924;-72
2021/09/21 12:46:12;;;;;;;;;;;;;;;;;;5092645;28;19924;-72
2021/09/21 12:48:39;;;;;;;;;;;;;;;;;;5094746;28;20405;-72
2021/09/21 12:51:05;;;;;;;;;;;;;;;;;;5096572;28;19924;-72
2021/09/21 12:53:31;;;;;;;;;;;;;;;;;;5096422;28;19928;-72
2021/09/21 12:55:57;;;;;;;;;;;;;;;;;;5096530;28;19934;-72
2021/09/21 12:58:24;;;;;;;;;;;;;;;;;;5096620;28;19924;-72
2021/09/21 13:00:51;;;;;;;;;;;;;;;;;;5096498;28;20297;-72
2021/09/21 13:03:18;;;;;;;;;;;;;;;;;;5096285;28;20018;-72
2021/09/21 13:05:44;;;;;;;;;;;;;;;;;;5096265;28;19924;-72
2021/09/21 13:08:10;;;;;;;;;;;;;;;;;;5096274;28;20432;-72
2021/09/21 13:10:36;;;;;;;;;;;;;;;;;;5095889;28;19931;-72
2021/09/21 13:13:03;;;;;;;;;;;;;;;;;;5096481;28;19924;-72
2021/09/21 13:15:29;;;;;;;;;;;;;;;;;;5095904;28;19925;-72
2021/09/21 13:17:56;;;;;;;;;;;;;;;;;;5096188;28;19924;-73
2021/09/21 13:20:22;;;;;;;;;;;;;;;;;;5096016;28;20386;-72
2021/09/21 13:22:48;;;;;;;;;;;;;;;;;;5095671;28;19925;-72
2021/09/21 13:25:14;;;;;;;;;;;;;;;;;;5095894;28;19924;-72
2021/09/21 13:27:41;;;;;;;;;;;;;;;;;;5095810;28;19924;-72
2021/09/21 13:30:07;;;;;;;;;;;;;;;;;;5095758;28;19924;-72
2021/09/21 13:32:33;;;;;;;;;;;;;;;;;;5095580;28;19924;-72
2021/09/21 13:35:00;;;;;;;;;;;;;;;;;;5096004;28;19946;-72
2021/09/21 13:37:26;;;;;;;;;;;;;;;;;;5095622;28;20386;-72
2021/09/21 13:39:52;;;;;;;;;;;;;;;;;;5095885;28;19928;-72
2021/09/21 13:42:19;;;;;;;;;;;;;;;;;;5095724;28;19924;-72
2021/09/21 13:44:45;;;;;;;;;;;;;;;;;;5095572;28;19924;-71
2021/09/21 13:47:11;;;;;;;;;;;;;;;;;;5095968;28;19967;-72
2021/09/21 13:49:38;;;;;;;;;;;;;;;;;;5095374;28;20416;-72
2021/09/21 13:52:04;;;;;;;;;;;;;;;;;;5095341;28;19932;-72
2021/09/21 13:54:30;;;;;;;;;;;;;;;;;;5095462;28;19932;-72
2021/09/21 13:56:56;;;;;;;;;;;;;;;;;;5095314;28;19924;-71
2021/09/21 13:59:23;;;;;;;;;;;;;;;;;;5094438;28;19936;-72
2021/09/21 14:01:49;;;;;;;;;;;;;;;;;;5094972;28;19924;-72
2021/09/21 14:04:15;;;;;;;;;;;;;;;;;;5095393;28;19924;-72
2021/09/21 14:06:42;;;;;;;;;;;;;;;;;;5095083;28;20402;-71
2021/09/21 14:09:08;;;;;;;;;;;;;;;;;;5095082;28;19924;-71
2021/09/21 14:11:35;;;;;;;;;;;;;;;;;;5094659;28;19925;-72
2021/09/21 14:14:01;;;;;;;;;;;;;;;;;;5095256;28;19924;-72
2021/09/21 14:16:27;;;;;;;;;;;;;;;;;;5095002;28;19925;-72
2021/09/21 14:18:53;;;;;;;;;;;;;;;;;;5094836;28;19925;-72
2021/09/21 14:21:23;;;;;;;;;;;;;;;;;;5095213;28;20006;-72
2021/09/21 14:23:49;;;;;;;;;;;;;;;;;;5094615;28;19949;-72
2021/09/21 14:26:15;;;;;;;;;;;;;;;;;;5094701;28;19924;-72
2021/09/21 14:28:42;;;;;;;;;;;;;;;;;;5094850;28;19924;-72
2021/09/21 14:31:08;;;;;;;;;;;;;;;;;;5094545;28;19928;-72
2021/09/21 14:33:35;;;;;;;;;;;;;;;;;;5094819;28;19927;-72
2021/09/21 14:36:01;;;;;;;;;;;;;;;;;;5094519;28;19924;-72
2021/09/21 14:38:27;;;;;;;;;;;;;;;;;;5094652;28;19924;-72
2021/09/21 14:40:54;;;;;;;;;;;;;;;;;;5094816;28;20446;-73
2021/09/21 14:43:20;;;;;;;;;;;;;;;;;;5094391;28;19924;-72
2021/09/21 14:45:46;;;;;;;;;;;;;;;;;;5094443;28;19931;-72
2021/09/21 14:48:13;;;;;;;;;;;;;;;;;;5094695;28;19928;-72
2021/09/21 14:50:39;;;;;;;;;;;;;;;;;;5093673;28;20393;-74
2021/09/21 14:53:05;;;;;;;;;;;;;;;;;;5093737;28;19942;-71
2021/09/21 14:55:32;;;;;;;;;;;;;;;;;;5093705;28;20417;-71
2021/09/21 14:57:58;;;;;;;;;;;;;;;;;;5094378;28;19931;-78
2021/09/21 15:00:27;;;;;;;;;;;;;;;;;;5094589;28;19935;-71
2021/09/21 15:02:54;;;;;;;;;;;;;;;;;;5094028;28;19989;-72
2021/09/21 15:05:20;;;;;;;;;;;;;;;;;;5094350;28;19939;-73
2021/09/21 15:07:46;;;;;;;;;;;;;;;;;;5093712;28;19925;-74
2021/09/21 15:10:13;;;;;;;;;;;;;;;;;;5094306;28;19924;-75
2021/09/21 15:12:39;;;;;;;;;;;;;;;;;;5093652;28;20264;-74
2021/09/21 15:15:08;;;;;;;;;;;;;;;;;;5093794;28;19924;-74
2021/09/21 15:17:35;;;;;;;;;;;;;;;;;;5093699;28;19924;-71
2021/09/21 15:20:02;;;;;;;;;;;;;;;;;;5094059;28;19931;-73
2021/09/21 15:22:28;;;;;;;;;;;;;;;;;;5093496;28;19924;-78
2021/09/21 15:24:55;;;;;;;;;;;;;;;;;;5093642;28;19924;-73
2021/09/21 15:27:21;;;;;;;;;;;;;;;;;;5093829;28;19946;-73
2021/09/21 15:29:47;;;;;;;;;;;;;;;;;;5093242;28;19928;-72
2021/09/21 15:32:15;;;;;;;;;;;;;;;;;;5093788;28;19935;-72
2021/09/21 15:34:41;;;;;;;;;;;;;;;;;;5093366;28;19931;-73
2021/09/21 15:37:08;;;;;;;;;;;;;;;;;;5093399;28;19931;-72
2021/09/21 15:39:34;;;;;;;;;;;;;;;;;;5092990;28;19978;-74
2021/09/21 15:42:00;;;;;;;;;;;;;;;;;;5093520;28;19931;-73
2021/09/21 15:44:28;;;;;;;;;;;;;;;;;;5093283;28;20404;-71
2021/09/21 15:46:55;;;;;;;;;;;;;;;;;;5093158;28;20290;-71
2021/09/21 15:49:21;;;;;;;;;;;;;;;;;;5093048;28;19924;-71
2021/09/21 15:51:49;;;;;;;;;;;;;;;;;;5092949;28;19928;-71
2021/09/21 15:54:15;;;;;;;;;;;;;;;;;;5093527;28;19925;-71
2021/09/21 15:56:41;;;;;;;;;;;;;;;;;;5092885;28;20286;-71
2021/09/21 15:59:08;;;;;;;;;;;;;;;;;;5093319;28;19946;-71
2021/09/21 16:01:34;;;;;;;;;;;;;;;;;;5093277;28;20015;-71
2021/09/21 16:04:01;;;;;;;;;;;;;;;;;;5093010;28;20231;-71
2021/09/21 16:06:27;;;;;;;;;;;;;;;;;;5092802;28;19924;-72
2021/09/21 16:08:54;;;;;;;;;;;;;;;;;;5093208;28;19931;-72
2021/09/21 16:11:20;;;;;;;;;;;;;;;;;;5093137;28;19924;-71
2021/09/21 16:13:46;;;;;;;;;;;;;;;;;;5092816;28;19924;-71
2021/09/21 16:16:12;;;;;;;;;;;;;;;;;;5092709;28;20335;-71
2021/09/21 16:18:39;;;;;;;;;;;;;;;;;;5092525;28;19930;-71
2021/09/21 16:21:05;;;;;;;;;;;;;;;;;;5092881;28;19930;-71
2021/09/21 16:23:31;;;;;;;;;;;;;;;;;;5091619;28;20400;-72
2021/09/21 16:25:58;;;;;;;;;;;;;;;;;;5091584;28;19931;-72
2021/09/21 16:28:24;;;;;;;;;;;;;;;;;;5092583;28;19935;-71
2021/09/21 16:30:50;;;;;;;;;;;;;;;;;;5092090;28;20401;-70
2021/09/21 16:33:17;;;;;;;;;;;;;;;;;;5092569;28;19924;-70
2021/09/21 16:35:43;;;;;;;;;;;;;;;;;;5092496;28;19935;-71
2021/09/21 16:38:09;;;;;;;;;;;;;;;;;;5092488;28;19931;-71
2021/09/21 16:40:35;;;;;;;;;;;;;;;;;;5092187;28;19924;-73
2021/09/21 16:43:02;;;;;;;;;;;;;;;;;;5092559;28;19924;-73
2021/09/21 16:45:28;;;;;;;;;;;;;;;;;;5092210;28;19931;-71